Time;durP1;ratioP1;P1;durP2;ratioP2;P2;SDS_P1;SDS_P2;PMS_P1;PMS_P2;Temp;Humidity;BMP_temperature;BMP_pressure;BME280_temperature;BME280_humidity;BME280_pressure;Samples;Min_cycle;Max_cycle;Signal;HPM_P1;HPM_P2
2021/12/19 00:04:34;;;;;;;57.22;20.55;;;;;;;1.60;100.00;100783.81;5082088;28;20052;-79
2021/12/19 00:09:48;;;;;;;56.85;20.15;;;;;;;1.72;100.00;100783.13;5094124;28;20052;-79
2021/12/19 00:12:15;;;;;;;54.13;20.40;;;;;;;1.75;100.00;100772.22;5076332;28;20052;-79
2021/12/19 00:14:46;;;;;;;49.38;16.80;;;;;;;1.72;100.00;100748.25;5091955;28;20052;-79
2021/12/19 00:17:12;;;;;;;51.75;19.92;;;;;;;1.84;100.00;100751.19;5076753;28;20048;-80
2021/12/19 00:19:39;;;;;;;58.17;18.80;;;;;;;1.85;100.00;100761.81;5099427;28;20097;-80
2021/12/19 00:22:06;;;;;;;55.47;19.77;;;;;;;1.78;100.00;100755.09;5093755;28;20559;-79
2021/12/19 00:24:36;;;;;;;58.13;19.05;;;;;;;1.90;100.00;100762.41;5093064;28;20056;-80
2021/12/19 00:27:05;;;;;;;50.45;17.90;;;;;;;1.84;100.00;100765.47;5093172;28;20048;-79
2021/12/19 00:29:32;;;;;;;49.30;17.52;;;;;;;1.80;100.00;100734.41;5089366;28;20095;-79
2021/12/19 00:32:00;;;;;;;46.92;18.33;;;;;;;1.87;100.00;100748.31;5091193;28;20409;-79
2021/12/19 00:34:27;;;;;;;51.08;17.88;;;;;;;1.94;100.00;100747.88;5092599;28;20058;-79
2021/12/19 00:36:59;;;;;;;48.17;16.30;;;;;;;1.95;100.00;100740.69;5091577;28;20047;-80
2021/12/19 00:39:30;;;;;;;39.30;15.55;;;;;;;1.90;100.00;100729.38;5093207;28;20047;-80
2021/12/19 00:41:56;;;;;;;;;;;;;;;1.86;100.00;100735.88;5081846;28;20580;-80
2021/12/19 00:44:24;;;;;;;46.30;14.85;;;;;;;1.67;100.00;100726.22;5085186;28;19924;-79
2021/12/19 00:47:03;;;;;;;46.67;15.93;;;;;;;1.61;100.00;100723.88;5092895;28;20044;-80
2021/12/19 00:49:32;;;;;;;40.65;14.98;;;;;;;1.47;100.00;100721.16;5095695;28;20044;-80
2021/12/19 00:51:59;;;;;;;44.45;16.65;;;;;;;1.51;100.00;100722.72;5092649;28;20044;-79
2021/12/19 00:54:26;;;;;;;48.03;16.23;;;;;;;1.67;100.00;100733.38;5093098;28;20087;-80
2021/12/19 00:56:53;;;;;;;43.40;15.30;;;;;;;1.66;100.00;100720.97;5083206;28;20142;-79
2021/12/19 00:59:22;;;;;;;38.58;15.18;;;;;;;1.72;100.00;100717.91;5072371;28;20110;-80
2021/12/19 01:01:50;;;;;;;51.42;19.05;;;;;;;1.65;100.00;100708.50;5074164;28;20102;-79
2021/12/19 01:04:19;;;;;;;43.60;15.70;;;;;;;1.69;100.00;100708.22;5089265;28;20056;-80
2021/12/19 01:06:52;;;;;;;48.22;16.77;;;;;;;1.65;100.00;100714.72;5099166;28;20058;-79
2021/12/19 01:09:19;;;;;;;45.13;14.38;;;;;;;1.64;100.00;100701.41;5092147;28;20043;-79
2021/12/19 01:11:48;;;;;;;44.97;13.82;;;;;;;1.61;100.00;100710.47;5085889;28;20044;-80
2021/12/19 01:14:18;;;;;;;41.47;15.52;;;;;;;1.63;100.00;100711.25;5071931;28;20111;-79
2021/12/19 01:16:44;;;;;;;45.28;16.10;;;;;;;1.55;100.00;100702.78;5073045;28;20041;-79
2021/12/19 01:19:13;;;;;;;40.42;14.15;;;;;;;1.69;100.00;100715.41;5090120;28;20471;-79
2021/12/19 01:21:45;;;;;;;35.53;13.63;;;;;;;1.57;100.00;100709.78;5087330;28;20075;-79
2021/12/19 01:24:16;;;;;;;40.45;15.45;;;;;;;1.60;100.00;100711.44;5092289;28;20044;-79
2021/12/19 01:26:43;;;;;;;43.92;15.73;;;;;;;1.53;100.00;100721.63;5085860;28;20045;-79
2021/12/19 01:29:18;;;;;;;38.22;13.75;;;;;;;1.52;100.00;100724.41;5089047;28;20071;-80
2021/12/19 01:31:45;;;;;;;34.55;12.98;;;;;;;1.58;100.00;100716.00;5088419;28;20063;-79
2021/12/19 01:34:13;;;;;;;39.13;15.25;;;;;;;1.42;100.00;100698.16;5074342;28;20051;-79
2021/12/19 01:36:43;;;;;;;45.55;14.75;;;;;;;1.60;100.00;100716.81;5087696;28;20048;-79
2021/12/19 01:39:11;;;;;;;45.13;15.48;;;;;;;1.46;100.00;100711.38;5083046;28;20051;-79
2021/12/19 01:41:46;;;;;;;42.45;14.20;;;;;;;1.44;100.00;100718.66;5091387;28;20064;-80
2021/12/19 01:44:13;;;;;;;40.45;15.38;;;;;;;1.51;100.00;100714.66;5088629;28;20433;-80
2021/12/19 01:46:40;;;;;;;43.65;15.55;;;;;;;1.59;100.00;100728.47;5087896;28;20043;-80
2021/12/19 01:49:07;;;;;;;39.30;14.45;;;;;;;1.54;100.00;100709.13;5075138;28;20048;-80
2021/12/19 01:51:39;;;;;;;40.97;14.65;;;;;;;1.56;100.00;100718.78;5091877;28;20099;-79
2021/12/19 01:54:06;;;;;;;49.47;14.13;;;;;;;1.51;100.00;100712.84;5072055;28;20052;-80
2021/12/19 01:56:33;;;;;;;42.80;15.00;;;;;;;1.58;100.00;100734.78;5083816;28;20066;-79
2021/12/19 01:59:02;;;;;;;40.25;14.60;;;;;;;1.54;100.00;100714.47;5093153;28;20040;-79
2021/12/19 02:01:29;;;;;;;39.67;14.18;;;;;;;1.50;100.00;100704.88;5090589;28;20048;-79
2021/12/19 02:03:57;;;;;;;41.95;15.05;;;;;;;1.39;100.00;100697.47;5088246;28;20376;-79
2021/12/19 02:06:27;;;;;;;41.05;14.57;;;;;;;1.45;100.00;100721.22;5089384;28;20124;-79
2021/12/19 02:08:59;;;;;;;40.75;15.98;;;;;;;1.38;100.00;100701.09;5083646;28;20044;-79
2021/12/19 02:11:27;;;;;;;42.25;16.08;;;;;;;1.51;100.00;100711.97;5079339;28;20051;-79
2021/12/19 02:13:54;;;;;;;44.45;15.30;;;;;;;1.58;100.00;100716.91;5075904;28;20048;-78
2021/12/19 02:16:22;;;;;;;41.88;15.40;;;;;;;1.55;100.00;100698.31;5072195;28;20055;-79
2021/12/19 02:18:49;;;;;;;40.85;16.52;;;;;;;1.41;100.00;100683.00;5091791;28;20063;-79
2021/12/19 02:21:17;;;;;;;47.00;16.40;;;;;;;1.33;100.00;100684.44;5090824;28;20105;-79
2021/12/19 02:23:44;;;;;;;43.42;16.63;;;;;;;1.33;100.00;100685.28;5090729;28;20484;-79
2021/12/19 02:26:14;;;;;;;35.60;13.45;;;;;;;1.46;100.00;100690.81;5081950;28;20102;-79
2021/12/19 02:28:40;;;;;;;;;;;;;;;1.49;100.00;100698.66;5097419;28;20048;-79
2021/12/19 02:31:07;;;;;;;37.40;14.80;;;;;;;1.34;100.00;100662.91;5088415;28;19992;-79
2021/12/19 02:33:38;;;;;;;46.60;15.93;;;;;;;1.41;100.00;100671.44;5089791;28;20106;-79
2021/12/19 02:36:22;;;;;;;45.00;15.57;;;;;;;1.54;100.00;100680.50;5091238;28;20048;-79
2021/12/19 02:39:20;;;;;;;39.50;14.32;;;;;;;1.63;100.00;100663.00;5083886;28;20036;-79
2021/12/19 02:50:04;;;;;;;44.22;15.95;;;;;;;1.55;100.00;100679.53;5090688;28;20104;-79
2021/12/19 02:52:31;;;;;;;40.92;14.25;;;;;;;1.57;100.00;100687.50;5071429;28;20068;-79
2021/12/19 02:54:59;;;;;;;43.67;16.08;;;;;;;1.37;100.00;100648.44;5083039;28;20047;-79
2021/12/19 02:57:26;;;;;;;44.60;16.23;;;;;;;1.44;100.00;100668.56;5104955;28;20044;-79
2021/12/19 02:59:53;;;;;;;43.13;14.85;;;;;;;1.31;100.00;100646.13;5075622;28;20515;-79
2021/12/19 03:02:19;;;;;;;45.10;15.10;;;;;;;1.20;100.00;100642.25;5090305;28;20048;-79
2021/12/19 03:04:54;;;;;;;40.92;14.73;;;;;;;1.20;100.00;100644.06;5080198;28;20067;-79
2021/12/19 03:07:21;;;;;;;38.85;13.98;;;;;;;1.20;100.00;100638.72;5101361;28;20479;-79
2021/12/19 03:10:03;;;;;;;38.70;14.55;;;;;;;1.31;100.00;100649.69;5095227;28;20048;-79
2021/12/19 03:12:47;;;;;;;42.88;14.15;;;;;;;1.34;100.00;100645.94;5078182;28;20452;-79
2021/12/19 03:18:05;;;;;;;38.90;13.80;;;;;;;1.33;100.00;100639.72;5087202;28;20149;-79
2021/12/19 03:20:33;;;;;;;39.97;14.48;;;;;;;1.24;100.00;100633.09;5087322;28;20407;-79
2021/12/19 03:23:02;;;;;;;37.05;13.57;;;;;;;1.32;100.00;100637.13;5098530;28;20058;-79
2021/12/19 03:25:30;;;;;;;35.15;12.98;;;;;;;1.29;100.00;100642.69;5093509;28;20049;-79
2021/12/19 03:28:00;;;;;;;46.92;15.10;;;;;;;1.25;100.00;100647.38;5106804;28;20047;-79
2021/12/19 03:30:27;;;;;;;42.60;14.25;;;;;;;1.18;100.00;100627.22;5083502;28;20045;-79
2021/12/19 03:32:54;;;;;;;41.53;14.38;;;;;;;1.24;100.00;100630.41;5098477;28;20082;-79
2021/12/19 03:35:23;;;;;;;47.28;15.02;;;;;;;1.18;100.00;100624.56;5080353;28;20575;-79
2021/12/19 03:37:51;;;;;;;49.17;15.68;;;;;;;1.23;100.00;100630.50;5088399;28;20075;-79
2021/12/19 03:40:22;;;;;;;42.20;16.10;;;;;;;1.20;100.00;100641.38;5093160;28;20525;-79
2021/12/19 03:42:51;;;;;;;51.90;16.40;;;;;;;1.10;100.00;100621.44;5091771;28;20063;-79
2021/12/19 03:45:22;;;;;;;46.00;15.00;;;;;;;1.24;100.00;100637.59;5094204;28;20044;-79
2021/12/19 03:47:50;;;;;;;49.90;15.63;;;;;;;1.22;100.00;100623.44;5086511;28;20131;-78
2021/12/19 03:50:23;;;;;;;45.97;15.45;;;;;;;1.09;100.00;100606.34;5082888;28;20048;-79
2021/12/19 03:52:53;;;;;;;48.28;16.83;;;;;;;1.19;100.00;100623.56;5089134;28;20048;-79
2021/12/19 03:55:21;;;;;;;43.63;15.43;;;;;;;1.12;100.00;100615.06;5086123;28;20101;-79
2021/12/19 03:57:51;;;;;;;51.92;16.65;;;;;;;1.17;100.00;100609.41;5094312;28;20072;-79
2021/12/19 04:00:25;;;;;;;46.50;15.65;;;;;;;1.14;100.00;100607.78;5094117;28;20113;-79
2021/12/19 04:02:53;;;;;;;50.47;15.57;;;;;;;1.20;100.00;100598.53;5087685;28;20495;-79
2021/12/19 04:05:20;;;;;;;47.70;16.23;;;;;;;1.16;100.00;100586.25;5094572;28;20156;-79
2021/12/19 04:07:47;;;;;;;48.65;15.73;;;;;;;1.20;100.00;100601.22;5093153;28;20048;-78
2021/12/19 04:10:14;;;;;;;52.75;15.93;;;;;;;1.26;100.00;100603.53;5094421;28;20165;-79
2021/12/19 04:12:42;;;;;;;43.50;14.52;;;;;;;1.24;100.00;100595.56;5088202;28;20438;-79
2021/12/19 04:15:10;;;;;;;51.70;17.35;;;;;;;1.21;100.00;100587.72;5083134;28;20060;-79
2021/12/19 04:17:39;;;;;;;50.95;16.63;;;;;;;1.20;100.00;100595.84;5103212;28;20041;-79
2021/12/19 04:20:07;;;;;;;45.38;16.35;;;;;;;1.13;100.00;100581.06;5087335;28;20052;-79
2021/12/19 04:22:39;;;;;;;55.58;18.45;;;;;;;1.15;100.00;100590.75;5092893;28;20056;-79
2021/12/19 04:25:06;;;;;;;50.80;18.15;;;;;;;1.17;100.00;100583.50;5093706;28;20529;-79
2021/12/19 04:27:33;;;;;;;47.30;15.85;;;;;;;1.20;100.00;100582.44;5100787;28;20506;-79
2021/12/19 04:30:03;;;;;;;50.47;16.38;;;;;;;1.18;100.00;100582.53;5092292;28;20479;-79
2021/12/19 04:32:34;;;;;;;50.20;17.50;;;;;;;1.12;100.00;100564.16;5110610;28;20093;-79
2021/12/19 04:35:02;;;;;;;47.47;16.35;;;;;;;1.13;100.00;100573.94;5100920;28;20048;-79
2021/12/19 04:37:54;;;;;;;52.72;17.38;;;;;;;1.21;100.00;100568.13;5099744;28;20040;-79
2021/12/19 04:40:21;;;;;;;47.22;16.25;;;;;;;1.35;100.00;100580.69;5092676;28;20407;-79
2021/12/19 04:51:44;;;;;;;46.22;14.80;;;;;;;1.32;100.00;100565.66;5090798;28;20078;-79
2021/12/19 04:54:25;;;;;;;45.63;14.02;;;;;;;1.37;100.00;100574.28;5113727;28;20055;-79
2021/12/19 04:57:05;;;;;;;46.90;15.13;;;;;;;1.40;100.00;100570.53;5091542;28;20040;-78
2021/12/19 04:59:55;;;;;;;42.90;13.27;;;;;;;1.57;100.00;100589.16;5103408;28;20500;-78
2021/12/19 05:16:09;;;;;;;21.30;7.40;;;;;;;1.43;100.00;100583.78;5087287;28;20464;-79
2021/12/19 05:18:39;;;;;;;14.80;5.78;;;;;;;1.33;100.00;100572.75;5099203;28;20044;-78
2021/12/19 05:21:13;;;;;;;18.27;6.28;;;;;;;1.36;100.00;100564.50;5092029;28;20113;-79
2021/12/19 05:26:22;;;;;;;15.48;6.25;;;;;;;1.62;100.00;100588.88;5094083;28;20059;-79
2021/12/19 05:28:52;;;;;;;13.18;5.70;;;;;;;1.43;100.00;100570.38;5105120;28;20043;-79
2021/12/19 05:31:19;;;;;;;11.93;5.75;;;;;;;1.53;100.00;100576.91;5091656;28;20420;-79
2021/12/19 05:33:47;;;;;;;16.85;5.95;;;;;;;1.40;100.00;100560.72;5094075;28;20472;-79
2021/12/19 05:47:16;;;;;;;10.95;4.75;;;;;;;1.40;100.00;100558.03;5056660;28;20045;-79
2021/12/19 05:49:43;;;;;;;11.20;5.35;;;;;;;1.34;100.00;100553.03;5095372;28;20043;-79
2021/12/19 05:52:12;;;;;;;9.73;4.63;;;;;;;1.44;100.00;100566.72;5093197;28;20059;-79
2021/12/19 05:54:40;;;;;;;12.18;4.78;;;;;;;1.31;100.00;100547.88;5098117;28;20050;-79
2021/12/19 05:57:07;;;;;;;12.27;5.65;;;;;;;1.27;100.00;100529.38;5092579;28;20125;-81
2021/12/19 05:59:37;;;;;;;11.68;5.40;;;;;;;1.41;100.00;100549.00;5092170;28;20487;-81
2021/12/19 06:02:05;;;;;;;13.55;5.53;;;;;;;1.44;100.00;100566.72;5094184;28;20498;-83
2021/12/19 06:04:32;;;;;;;13.02;5.38;;;;;;;1.27;100.00;100534.75;5102999;28;20055;-79
2021/12/19 06:06:59;;;;;;;11.20;4.93;;;;;;;1.28;100.00;100539.13;5103111;28;20145;-79
2021/12/19 06:09:26;;;;;;;18.98;5.25;;;;;;;1.30;100.00;100538.09;5091929;28;20118;-79
2021/12/19 06:11:56;;;;;;;11.35;4.85;;;;;;;1.16;100.00;100514.81;5108087;28;20058;-79
2021/12/19 06:14:23;;;;;;;12.10;4.97;;;;;;;1.16;100.00;100505.91;5072298;28;20133;-79
2021/12/19 06:16:56;;;;;;;14.43;4.97;;;;;;;1.22;100.00;100518.94;5079377;28;20461;-79
2021/12/19 06:19:23;;;;;;;13.75;4.97;;;;;;;1.24;100.00;100514.34;5072252;28;20051;-79
2021/12/19 06:21:49;;;;;;;13.00;5.00;;;;;;;1.30;100.00;100530.06;5082904;28;20048;-79
2021/12/19 06:24:19;;;;;;;8.90;4.70;;;;;;;1.21;100.00;100507.34;5091860;28;20097;-79
2021/12/19 06:26:46;;;;;;;16.02;5.30;;;;;;;1.31;100.00;100515.72;5092740;28;20503;-79
2021/12/19 06:29:17;;;;;;;14.10;5.55;;;;;;;1.13;100.00;100504.28;5096857;28;20392;-79
2021/12/19 06:31:46;;;;;;;17.08;6.30;;;;;;;1.00;100.00;100490.75;5096157;28;20112;-79
2021/12/19 06:34:12;;;;;;;16.67;6.93;;;;;;;1.17;100.00;100513.84;5095506;28;20051;-79
2021/12/19 06:36:40;;;;;;;17.45;6.90;;;;;;;1.14;100.00;100519.38;5096181;28;20522;-79
2021/12/19 06:39:07;;;;;;;18.75;6.88;;;;;;;1.21;100.00;100519.91;5099998;28;20278;-79
2021/12/19 06:41:42;;;;;;;19.40;7.38;;;;;;;1.01;100.00;100516.59;5095612;28;20052;-79
2021/12/19 06:44:09;;;;;;;22.75;7.55;;;;;;;1.12;100.00;100523.97;5099384;28;20048;-79
2021/12/19 06:46:42;;;;;;;21.15;7.13;;;;;;;1.16;100.00;100506.78;5095808;28;20048;-79
2021/12/19 06:49:08;;;;;;;22.27;8.98;;;;;;;1.16;100.00;100512.13;5092989;28;20048;-79
2021/12/19 06:51:36;;;;;;;18.77;7.60;;;;;;;1.32;100.00;100528.13;5095534;28;20052;-79
2021/12/19 06:54:03;;;;;;;26.60;8.57;;;;;;;1.17;100.00;100511.16;5095171;28;20845;-79
2021/12/19 06:56:30;;;;;;;23.63;8.43;;;;;;;1.13;100.00;100498.03;5087011;28;20139;-79
2021/12/19 06:58:57;;;;;;;22.90;7.53;;;;;;;1.27;100.00;100526.72;5083164;28;20488;-79
2021/12/19 07:01:27;;;;;;;25.63;9.07;;;;;;;1.25;100.00;100521.44;5106649;28;20052;-79
2021/12/19 07:03:56;;;;;;;26.55;8.77;;;;;;;1.28;100.00;100517.69;5106735;28;20040;-79
2021/12/19 07:06:23;;;;;;;21.27;8.80;;;;;;;1.18;100.00;100496.81;5095182;28;20544;-79
2021/12/19 07:08:50;;;;;;;21.63;8.90;;;;;;;1.20;100.00;100512.81;5100075;28;20052;-79
2021/12/19 07:11:16;;;;;;;22.27;8.10;;;;;;;1.21;100.00;100511.84;5101701;28;20368;-79
2021/12/19 07:13:45;;;;;;;25.00;8.52;;;;;;;1.10;100.00;100503.59;5094643;28;20048;-79
2021/12/19 07:16:14;;;;;;;18.17;7.53;;;;;;;1.13;100.00;100524.81;5096308;28;20048;-79
2021/12/19 07:18:42;;;;;;;21.83;7.65;;;;;;;1.02;100.00;100510.28;5094446;28;20431;-79
2021/12/19 07:21:11;;;;;;;20.05;8.02;;;;;;;0.97;100.00;100492.75;5100236;28;20071;-79
2021/12/19 07:23:38;;;;;;;23.95;8.02;;;;;;;0.99;100.00;100514.94;5111009;28;20048;-79
2021/12/19 07:26:05;;;;;;;20.33;7.63;;;;;;;0.99;100.00;100512.25;5095605;28;20039;-79
2021/12/19 07:28:32;;;;;;;24.73;8.93;;;;;;;0.98;100.00;100497.13;5104993;28;20430;-79
2021/12/19 07:30:59;;;;;;;19.00;7.10;;;;;;;1.04;100.00;100510.19;5093334;28;20048;-79
2021/12/19 07:33:26;;;;;;;21.95;7.85;;;;;;;1.02;100.00;100504.94;5103791;28;20442;-79
2021/12/19 07:35:55;;;;;;;18.67;5.85;;;;;;;0.96;100.00;100509.75;5094832;28;20059;-79
2021/12/19 07:38:29;;;;;;;18.00;7.68;;;;;;;1.06;100.00;100513.63;5094719;28;20406;-79
2021/12/19 07:40:58;;;;;;;21.60;7.63;;;;;;;0.98;100.00;100510.53;5093835;28;20073;-79
2021/12/19 07:43:25;;;;;;;18.23;6.90;;;;;;;0.90;100.00;100497.59;5094512;28;20058;-80
2021/12/19 07:45:52;;;;;;;23.10;7.63;;;;;;;0.98;100.00;100497.13;5096668;28;20058;-79
2021/12/19 07:48:19;;;;;;;21.40;7.05;;;;;;;1.04;100.00;100510.19;5105051;28;20479;-79
2021/12/19 07:50:46;;;;;;;22.63;8.00;;;;;;;1.01;100.00;100499.63;5093384;28;20461;-79
2021/12/19 07:53:12;;;;;;;22.50;6.97;;;;;;;0.99;100.00;100499.72;5098450;28;20053;-79
2021/12/19 07:55:40;;;;;;;17.55;6.40;;;;;;;1.13;100.00;100506.06;5105390;28;20056;-79
2021/12/19 07:58:10;;;;;;;20.48;6.15;;;;;;;1.00;100.00;100485.38;5107422;28;20437;-79
2021/12/19 08:00:39;;;;;;;17.75;7.18;;;;;;;1.20;100.00;100499.41;5103305;28;20044;-79
2021/12/19 08:03:08;;;;;;;19.77;7.28;;;;;;;1.22;100.00;100484.97;5094014;28;20056;-79
2021/12/19 08:05:35;;;;;;;14.35;6.68;;;;;;;1.24;100.00;100485.72;5105588;28;20127;-79
2021/12/19 08:08:04;;;;;;;25.58;7.32;;;;;;;1.22;100.00;100481.44;5102073;28;20065;-79
2021/12/19 08:13:18;;;;;;;17.65;7.30;;;;;;;1.31;100.00;100494.28;5089462;28;20347;-79
2021/12/19 08:15:45;;;;;;;23.05;7.80;;;;;;;1.18;100.00;100491.47;5100148;28;20452;-79
2021/12/19 08:18:12;;;;;;;15.70;7.25;;;;;;;1.20;100.00;100489.53;5098902;28;20055;-79
2021/12/19 08:20:38;;;;;;;18.85;8.10;;;;;;;1.27;100.00;100505.28;5114125;28;20211;-79
2021/12/19 08:23:11;;;;;;;22.50;7.65;;;;;;;1.26;100.00;100484.78;5098275;28;20051;-85
2021/12/19 08:25:40;;;;;;;21.70;6.90;;;;;;;1.22;100.00;100479.63;5099754;28;20056;-84
2021/12/19 08:28:06;;;;;;;28.15;10.77;;;;;;;1.27;100.00;100492.72;5095476;27;20058;-80
2021/12/19 08:30:34;;;;;;;14.52;6.32;;;;;;;1.27;100.00;100470.44;5102285;28;20476;-79
2021/12/19 08:33:01;;;;;;;18.98;7.45;;;;;;;1.41;100.00;100486.53;5099608;28;20046;-79
2021/12/19 08:35:28;;;;;;;19.35;7.03;;;;;;;1.33;100.00;100478.09;5099785;27;20047;-79
2021/12/19 08:37:55;;;;;;;21.35;7.45;;;;;;;1.35;100.00;100490.44;5094021;28;20051;-79
2021/12/19 08:40:23;;;;;;;22.15;8.27;;;;;;;1.27;100.00;100473.97;5094105;28;20048;-79
2021/12/19 08:42:50;;;;;;;19.75;7.28;;;;;;;1.18;100.00;100486.09;5091973;28;20060;-79
2021/12/19 08:45:17;;;;;;;18.50;7.63;;;;;;;1.05;100.00;100472.59;5109878;28;20047;-79
2021/12/19 08:47:45;;;;;;;18.85;7.32;;;;;;;1.16;100.00;100479.09;5100750;28;20056;-78
2021/12/19 08:50:13;;;;;;;15.35;7.10;;;;;;;1.02;100.00;100458.50;5092983;28;20536;-78
2021/12/19 08:52:40;;;;;;;18.52;8.13;;;;;;;1.13;100.00;100471.25;5098848;28;20449;-78
2021/12/19 08:55:09;;;;;;;21.23;8.48;;;;;;;1.16;100.00;100468.38;5097783;28;20101;-78
2021/12/19 08:57:36;;;;;;;23.77;8.90;;;;;;;1.09;100.00;100477.78;5095598;28;20090;-79
2021/12/19 09:00:04;;;;;;;22.40;8.25;;;;;;;1.16;100.00;100484.47;5093905;28;20043;-78
2021/12/19 09:02:31;;;;;;;21.60;8.68;;;;;;;1.19;100.00;100486.97;5100807;28;20048;-78
2021/12/19 09:05:00;;;;;;;23.35;8.32;;;;;;;1.10;100.00;100477.69;5112192;28;20048;-79
2021/12/19 09:07:26;;;;;;;18.55;7.20;;;;;;;1.09;100.00;100475.09;5113609;27;20043;-79
2021/12/19 09:09:53;;;;;;;21.35;9.55;;;;;;;1.11;100.00;100465.16;5102502;28;20488;-79
2021/12/19 09:12:20;;;;;;;20.80;8.35;;;;;;;1.23;100.00;100480.47;5091932;28;20059;-79
2021/12/19 09:14:47;;;;;;;22.30;8.30;;;;;;;1.14;100.00;100460.44;5096440;28;20059;-79
2021/12/19 09:17:14;;;;;;;21.00;8.45;;;;;;;1.23;100.00;100457.25;5094362;28;20089;-79
2021/12/19 09:19:41;;;;;;;21.55;7.60;;;;;;;1.26;100.00;100472.25;5100124;28;20051;-79
2021/12/19 09:22:09;;;;;;;17.02;7.15;;;;;;;1.35;100.00;100462.78;5112403;28;20100;-78
2021/12/19 09:24:36;;;;;;;22.50;8.55;;;;;;;1.20;100.00;100445.81;5111230;28;20462;-78
2021/12/19 09:27:03;;;;;;;19.25;7.35;;;;;;;1.28;100.00;100450.72;5112555;28;20055;-79
2021/12/19 09:29:30;;;;;;;22.88;7.85;;;;;;;1.40;100.00;100466.91;5103156;28;20098;-78
2021/12/19 09:32:02;;;;;;;15.98;7.05;;;;;;;1.22;100.00;100446.63;5094582;28;20108;-78
2021/12/19 09:34:29;;;;;;;14.35;5.93;;;;;;;1.30;100.00;100432.75;5100836;28;20047;-79
2021/12/19 09:36:57;;;;;;;13.90;6.25;;;;;;;1.26;100.00;100436.56;5113062;27;20089;-79
2021/12/19 09:39:26;;;;;;;17.27;6.15;;;;;;;1.34;100.00;100459.25;5111871;27;20375;-78
2021/12/19 09:42:00;;;;;;;12.25;5.88;;;;;;;1.42;100.00;100466.81;5111449;28;20047;-78
2021/12/19 09:44:27;;;;;;;14.80;6.38;;;;;;;1.38;100.00;100451.88;5111271;28;20051;-78
2021/12/19 09:46:53;;;;;;;12.88;6.03;;;;;;;1.38;100.00;100444.69;5097314;28;20047;-79
2021/12/19 09:49:23;;;;;;;18.85;6.97;;;;;;;1.43;100.00;100447.13;5094519;28;20052;-79
2021/12/19 09:51:51;;;;;;;12.85;6.50;;;;;;;1.36;100.00;100432.38;5091943;28;20055;-78
2021/12/19 09:54:18;;;;;;;11.15;5.75;;;;;;;1.50;100.00;100437.72;5073784;28;20118;-79
2021/12/19 09:56:47;;;;;;;13.27;6.30;;;;;;;1.50;100.00;100423.47;5112176;28;20043;-78
2021/12/19 09:59:16;;;;;;;15.50;6.53;;;;;;;1.52;100.00;100429.56;5111265;28;20048;-79
2021/12/19 10:01:45;;;;;;;11.55;5.55;;;;;;;1.59;100.00;100442.50;5112331;28;20441;-79
2021/12/19 10:04:33;;;;;;;11.98;6.50;;;;;;;1.65;100.00;100433.22;5093304;28;20059;-78
2021/12/19 10:07:19;;;;;;;12.40;5.43;;;;;;;1.68;100.00;100419.63;5091100;28;20454;-79
2021/12/19 10:09:58;;;;;;;12.68;6.53;;;;;;;1.81;100.00;100418.81;5078437;28;20062;-79
2021/12/19 10:12:48;;;;;;;12.90;5.17;;;;;;;1.79;100.00;100400.16;5108994;28;20059;-79
2021/12/19 10:15:19;;;;;;;9.32;4.53;;;;;;;1.69;100.00;100391.84;5092383;28;20051;-79
2021/12/19 10:17:48;;;;;;;10.75;4.68;;;;;;;1.63;100.00;100399.44;5095839;28;20394;-79
2021/12/19 10:20:17;;;;;;;13.25;4.93;;;;;;;1.69;100.00;100410.63;5109705;28;20051;-79
2021/12/19 10:22:47;;;;;;;9.35;4.47;;;;;;;1.58;100.00;100397.91;5097533;28;20063;-80
2021/12/19 10:25:19;;;;;;;9.32;4.20;;;;;;;1.61;100.00;100390.63;5092963;27;20059;-79
2021/12/19 10:27:49;;;;;;;8.35;4.03;;;;;;;1.67;100.00;100390.22;5103692;28;20044;-79
2021/12/19 10:30:24;;;;;;;;;;;;;;;1.73;100.00;100388.03;5112872;27;20120;-79
2021/12/19 10:33:00;;;;;;;7.55;4.03;;;;;;;1.66;100.00;100372.44;5071384;28;19924;-79
2021/12/19 10:35:31;;;;;;;8.38;3.90;;;;;;;1.60;100.00;100360.28;5074477;28;20144;-79
2021/12/19 10:37:59;;;;;;;8.30;4.35;;;;;;;1.56;100.00;100367.63;5097741;28;20059;-79
2021/12/19 10:40:28;;;;;;;8.95;4.28;;;;;;;1.67;100.00;100361.63;5095238;28;20059;-79
2021/12/19 10:43:00;;;;;;;8.90;4.20;;;;;;;1.75;100.00;100355.75;5091598;28;20072;-79
2021/12/19 10:45:36;;;;;;;9.07;6.03;;;;;;;1.80;100.00;100342.91;5102250;28;20491;-79
2021/12/19 10:48:27;;;;;;;7.40;4.18;;;;;;;1.74;100.00;100352.19;5091479;28;20059;-79
2021/12/19 10:51:00;;;;;;;7.50;4.07;;;;;;;1.69;100.00;100334.72;5091651;28;20513;-79
2021/12/19 10:53:32;;;;;;;7.25;3.95;;;;;;;1.74;100.00;100338.78;5091091;28;20048;-79
2021/12/19 10:56:00;;;;;;;6.78;3.47;;;;;;;1.71;100.00;100335.47;5092488;28;20055;-79
2021/12/19 10:58:34;;;;;;;12.45;7.43;;;;;;;1.77;100.00;100330.53;5102918;28;20048;-79
2021/12/19 11:01:08;;;;;;;7.03;4.22;;;;;;;1.77;100.00;100325.19;5110476;28;20088;-79
2021/12/19 11:03:51;;;;;;;7.80;3.90;;;;;;;1.95;100.00;100346.41;5111792;28;20047;-79
2021/12/19 11:06:29;;;;;;;5.57;3.28;;;;;;;1.87;100.00;100317.41;5092715;28;20128;-79
2021/12/19 11:08:58;;;;;;;4.07;3.17;;;;;;;1.86;100.00;100310.31;5091136;28;20097;-79
2021/12/19 11:11:34;;;;;;;7.63;3.47;;;;;;;2.04;100.00;100329.69;5107109;28;20070;-79
2021/12/19 11:14:03;;;;;;;5.40;3.25;;;;;;;1.90;100.00;100308.31;5091073;28;20062;-79
2021/12/19 11:16:31;;;;;;;4.68;3.00;;;;;;;1.92;100.00;100301.88;5098243;28;20048;-79
2021/12/19 11:18:58;;;;;;;4.78;4.00;;;;;;;2.03;100.00;100316.38;5097892;28;20100;-79
2021/12/19 11:21:24;;;;;;;5.55;3.17;;;;;;;1.96;100.00;100299.84;5114993;28;20108;-79
2021/12/19 11:23:52;;;;;;;4.85;3.30;;;;;;;1.84;100.00;100292.63;5115167;28;20490;-79
2021/12/19 11:26:20;;;;;;;4.95;3.38;;;;;;;1.85;100.00;100286.28;5097938;27;20052;-79
2021/12/19 11:28:47;;;;;;;5.95;3.13;;;;;;;1.93;100.00;100295.53;5094627;28;20122;-79
2021/12/19 11:31:16;;;;;;;5.82;3.70;;;;;;;2.00;100.00;100289.78;5098351;28;20044;-80
2021/12/19 11:34:00;;;;;;;5.75;3.80;;;;;;;2.03;100.00;100293.13;5096145;28;20071;-79
2021/12/19 11:36:33;;;;;;;6.93;3.30;;;;;;;1.88;100.00;100286.97;5110917;28;20048;-79
2021/12/19 11:39:02;;;;;;;4.35;3.28;;;;;;;1.87;100.00;100285.22;5114617;27;20506;-79
2021/12/19 11:41:31;;;;;;;4.10;3.03;;;;;;;1.88;100.00;100270.00;5114596;28;20571;-79
2021/12/19 11:44:01;;;;;;;4.87;3.07;;;;;;;1.91;100.00;100264.41;5115205;28;20047;-79
2021/12/19 11:46:49;;;;;;;4.40;3.03;;;;;;;1.84;100.00;100255.94;5114232;28;20044;-79
2021/12/19 11:49:21;;;;;;;4.72;3.28;;;;;;;1.96;100.00;100265.00;5098508;28;20044;-79
2021/12/19 11:52:09;;;;;;;7.30;4.15;;;;;;;2.08;100.00;100268.69;5074283;28;20090;-79
2021/12/19 11:54:36;;;;;;;8.30;4.63;;;;;;;1.94;100.00;100234.72;5090492;28;20055;-79
2021/12/19 11:57:07;;;;;;;6.75;4.00;;;;;;;2.02;100.00;100253.84;5094918;28;20418;-79
2021/12/19 11:59:34;;;;;;;6.10;4.03;;;;;;;2.04;100.00;100248.38;5097718;28;20146;-79
2021/12/19 12:02:23;;;;;;;7.07;4.70;;;;;;;2.15;100.00;100250.31;5114415;28;20132;-79
2021/12/19 12:05:23;;;;;;;9.15;5.30;;;;;;;2.03;100.00;100234.13;5100633;28;20043;-79
2021/12/19 12:08:13;;;;;;;6.70;4.40;;;;;;;1.96;100.00;100235.47;5071716;28;20052;-79
2021/12/19 12:11:11;;;;;;;7.20;4.60;;;;;;;1.90;100.00;100234.06;5100363;28;20043;-79
2021/12/19 12:13:40;;;;;;;7.82;4.97;;;;;;;1.91;100.00;100216.16;5114709;27;20452;-79
2021/12/19 12:16:38;;;;;;;8.32;5.05;;;;;;;1.99;100.00;100224.53;5099878;28;20058;-79
2021/12/19 12:19:07;;;;;;;7.45;4.55;;;;;;;1.88;100.00;100217.22;5099052;28;20043;-79
2021/12/19 12:21:40;;;;;;;5.20;3.55;;;;;;;1.75;100.00;100208.28;5100461;28;20051;-79
2021/12/19 12:24:15;;;;;;;6.78;5.13;;;;;;;1.69;100.00;100185.44;5113660;28;20047;-79
2021/12/19 12:26:54;;;;;;;7.28;4.43;;;;;;;1.63;100.00;100191.19;5113741;28;20047;-79